createdAt,value
2022-09-10T00:00:08.800Z,1.6
2022-09-10T00:01:09.393Z,1.1
2022-09-10T00:02:10.014Z,1.4
2022-09-10T00:03:10.620Z,1.3
2022-09-10T00:04:11.181Z,1.0
2022-09-10T00:05:11.776Z,1.5
2022-09-10T00:06:12.369Z,1.2
2022-09-10T00:07:12.964Z,1.5
2022-09-10T00:08:13.564Z,1.4
2022-09-10T00:09:14.155Z,1.5
2022-09-10T00:10:14.751Z,1.7
2022-09-10T00:11:15.345Z,1.4
2022-09-10T00:12:15.939Z,1.8
2022-09-10T00:13:16.533Z,1.5
2022-09-10T00:14:17.128Z,1.4
2022-09-10T00:15:17.721Z,1.5
2022-09-10T00:16:18.357Z,1.8
2022-09-10T00:17:18.932Z,1.3
2022-09-10T00:18:19.527Z,1.5
2022-09-10T00:19:20.121Z,1.7
2022-09-10T00:20:20.717Z,1.4
2022-09-10T00:21:21.311Z,1.4
2022-09-10T00:22:21.910Z,2.5
2022-09-10T00:23:22.501Z,8.2
2022-09-10T00:24:23.095Z,2.6
2022-09-10T00:25:23.690Z,1.0
2022-09-10T00:26:24.287Z,1.3
2022-09-10T00:27:24.880Z,1.5
2022-09-10T00:28:25.476Z,1.5
2022-09-10T00:29:26.067Z,1.9
2022-09-10T00:30:26.669Z,1.8
2022-09-10T00:31:27.292Z,12.2
2022-09-10T00:32:27.855Z,20.7
2022-09-10T00:33:28.450Z,9.7
2022-09-10T00:34:29.045Z,4.3
2022-09-10T00:35:29.640Z,1.5
2022-09-10T00:36:30.236Z,1.6
2022-09-10T00:37:30.829Z,1.7
2022-09-10T00:38:31.471Z,1.3
2022-09-10T00:39:32.122Z,1.9
2022-09-10T00:40:32.677Z,2.0
2022-09-10T00:41:33.272Z,1.6
2022-09-10T00:42:33.870Z,1.4
2022-09-10T00:43:34.463Z,1.5
2022-09-10T00:44:35.698Z,1.5
2022-09-10T00:45:36.308Z,1.3
2022-09-10T00:46:36.870Z,2.0
2022-09-10T00:47:37.466Z,1.8
2022-09-10T00:48:38.228Z,1.8
2022-09-10T00:49:38.807Z,1.7
2022-09-10T00:50:39.422Z,1.9
2022-09-10T00:51:40.018Z,1.8
2022-09-10T00:52:40.611Z,1.7
2022-09-10T00:53:41.208Z,1.6
2022-09-10T00:54:41.801Z,1.6
2022-09-10T00:55:42.396Z,1.5
2022-09-10T00:56:43.015Z,1.4
2022-09-10T00:57:43.656Z,1.9
2022-09-10T00:58:44.251Z,1.8
2022-09-10T00:59:44.847Z,1.7
2022-09-10T01:00:45.458Z,1.8
2022-09-10T01:01:46.066Z,1.7
2022-09-10T01:02:46.650Z,1.7
2022-09-10T01:03:47.246Z,1.6
2022-09-10T01:04:47.841Z,1.8
2022-09-10T01:05:48.437Z,1.7
2022-09-10T01:06:49.050Z,1.8
2022-09-10T01:07:49.647Z,1.9
2022-09-10T01:08:50.240Z,2.1
2022-09-10T01:09:50.834Z,1.7
2022-09-10T01:10:51.430Z,1.6
2022-09-10T01:11:52.024Z,2.0
2022-09-10T01:12:52.618Z,1.5
2022-09-10T01:13:53.212Z,2.2
2022-09-10T01:14:53.807Z,2.1
2022-09-10T01:15:54.444Z,2.5
2022-09-10T01:16:54.998Z,2.2
2022-09-10T01:17:55.591Z,1.8
2022-09-10T01:18:56.207Z,1.8
2022-09-10T01:19:56.802Z,2.0
2022-09-10T01:20:57.397Z,1.9
2022-09-10T01:21:57.990Z,1.9
2022-09-10T01:22:58.606Z,1.6
2022-09-10T01:23:59.200Z,1.8
2022-09-10T01:24:59.795Z,2.4
2022-09-10T01:26:00.389Z,2.1
2022-09-10T01:27:00.985Z,1.9
2022-09-10T01:28:01.579Z,2.0
2022-09-10T01:29:02.174Z,2.2
2022-09-10T01:30:02.768Z,2.1
2022-09-10T01:31:03.362Z,1.6
2022-09-10T01:32:03.960Z,2.1
2022-09-10T01:33:04.552Z,1.8
2022-09-10T01:34:05.145Z,2.1
2022-09-10T01:35:05.740Z,2.0
2022-09-10T01:36:06.335Z,2.0
2022-09-10T01:37:06.929Z,2.3
2022-09-10T01:38:07.527Z,2.3
2022-09-10T01:39:08.120Z,2.1
2022-09-10T01:40:08.788Z,2.4
2022-09-10T01:41:09.345Z,2.2
2022-09-10T01:42:09.937Z,2.3
2022-09-10T01:43:10.532Z,2.3
2022-09-10T01:44:11.126Z,2.1
2022-09-10T01:45:11.719Z,2.2
2022-09-10T01:46:12.314Z,2.4
2022-09-10T01:47:12.912Z,2.5
2022-09-10T01:48:13.504Z,2.1
2022-09-10T01:49:14.099Z,1.6
2022-09-10T01:50:14.694Z,1.9
2022-09-10T01:51:15.290Z,2.1
2022-09-10T01:52:15.883Z,2.0
2022-09-10T01:53:16.480Z,2.1
2022-09-10T01:54:17.093Z,1.9
2022-09-10T01:55:17.690Z,1.8
2022-09-10T01:56:18.281Z,2.0
2022-09-10T01:57:18.897Z,1.9
2022-09-10T01:58:19.489Z,2.0
2022-09-10T01:59:20.084Z,1.8
2022-09-10T02:00:20.679Z,2.1
2022-09-10T02:01:21.321Z,2.1
2022-09-10T02:02:21.909Z,2.1
2022-09-10T02:03:22.468Z,1.9
2022-09-10T02:04:23.062Z,2.1
2022-09-10T02:05:23.675Z,2.3
2022-09-10T02:06:24.269Z,2.1
2022-09-10T02:07:24.864Z,2.2
2022-09-10T02:08:25.456Z,2.3
2022-09-10T02:09:26.054Z,2.5
2022-09-10T02:10:26.647Z,2.0
2022-09-10T02:11:27.241Z,2.6
2022-09-10T02:12:27.835Z,2.5
2022-09-10T02:13:28.429Z,2.5
2022-09-10T02:14:29.026Z,2.3
2022-09-10T02:15:29.620Z,2.6
2022-09-10T02:16:30.284Z,1.9
2022-09-10T02:17:30.808Z,2.3
2022-09-10T02:18:31.480Z,2.4
2022-09-10T02:19:32.032Z,2.3
2022-09-10T02:20:32.631Z,2.6
2022-09-10T02:21:33.224Z,3.7
2022-09-10T02:22:33.819Z,4.7
2022-09-10T02:23:34.414Z,4.2
2022-09-10T02:24:35.008Z,4.0
2022-09-10T02:25:35.604Z,2.7
2022-09-10T02:26:36.203Z,2.7
2022-09-10T02:27:36.793Z,2.7
2022-09-10T02:28:37.430Z,2.8
2022-09-10T02:29:38.058Z,2.3
2022-09-10T02:30:38.652Z,2.5
2022-09-10T02:31:39.415Z,3.1
2022-09-10T02:32:39.971Z,2.4
2022-09-10T02:33:40.567Z,2.8
2022-09-10T02:34:41.158Z,2.9
2022-09-10T02:35:41.754Z,3.4
2022-09-10T02:36:42.349Z,3.0
2022-09-10T02:37:42.942Z,3.2
2022-09-10T02:38:43.536Z,3.4
2022-09-10T02:39:44.181Z,3.3
2022-09-10T02:40:44.727Z,3.0
2022-09-10T02:41:45.324Z,2.9
2022-09-10T02:42:45.917Z,3.0
2022-09-10T02:43:46.532Z,3.3
2022-09-10T02:44:47.125Z,3.5
2022-09-10T02:45:47.762Z,2.8
2022-09-10T02:46:48.332Z,3.0
2022-09-10T02:47:48.929Z,3.1
2022-09-10T02:48:49.522Z,3.3
2022-09-10T02:49:50.116Z,2.9
2022-09-10T02:50:50.713Z,3.6
2022-09-10T02:51:51.306Z,3.3
2022-09-10T02:52:51.901Z,3.3
2022-09-10T02:53:52.496Z,3.1
2022-09-10T02:54:53.089Z,3.2
2022-09-10T02:55:53.686Z,3.2
2022-09-10T02:56:54.280Z,3.2
2022-09-10T02:57:54.875Z,2.8
2022-09-10T02:58:55.469Z,3.7
2022-09-10T02:59:56.083Z,3.4
2022-09-10T03:00:56.718Z,3.2
2022-09-10T03:01:57.306Z,3.2
2022-09-10T03:03:02.816Z,3.1
2022-09-10T03:03:59.510Z,3.0
2022-09-10T03:05:00.110Z,2.8
2022-09-10T03:06:00.701Z,3.3
2022-09-10T03:07:01.295Z,2.6
2022-09-10T03:08:01.894Z,2.8
2022-09-10T03:09:02.485Z,3.0
2022-09-10T03:10:03.079Z,3.3
2022-09-10T03:11:03.693Z,3.4
2022-09-10T03:12:04.310Z,3.1
2022-09-10T03:13:04.901Z,3.3
2022-09-10T03:14:05.496Z,3.8
2022-09-10T03:15:06.088Z,3.3
2022-09-10T03:16:06.736Z,3.4
2022-09-10T03:17:07.290Z,3.7
2022-09-10T03:18:07.885Z,4.0
2022-09-10T03:19:08.479Z,3.6
2022-09-10T03:20:09.077Z,3.2
2022-09-10T03:21:09.673Z,4.0
2022-09-10T03:22:10.270Z,3.6
2022-09-10T03:23:10.862Z,4.0
2022-09-10T03:24:14.267Z,3.7
2022-09-10T03:25:13.039Z,3.8
2022-09-10T03:26:13.635Z,3.4
2022-09-10T03:27:14.227Z,3.7
2022-09-10T03:28:14.822Z,3.2
2022-09-10T03:29:15.436Z,3.6
2022-09-10T03:30:16.032Z,3.0
2022-09-10T03:31:16.698Z,3.3
2022-09-10T03:32:17.263Z,3.4
2022-09-10T03:33:17.857Z,3.1
2022-09-10T03:34:18.453Z,3.5
2022-09-10T03:35:19.066Z,3.1
2022-09-10T03:36:19.660Z,3.4
2022-09-10T03:37:20.254Z,3.2
2022-09-10T03:38:20.850Z,2.9
2022-09-10T03:39:21.442Z,3.2
2022-09-10T03:40:22.039Z,3.1
2022-09-10T03:41:22.636Z,2.7
2022-09-10T03:42:23.228Z,3.3
2022-09-10T03:43:23.823Z,3.2
2022-09-10T03:44:24.417Z,3.0
2022-09-10T03:45:25.047Z,3.2
2022-09-10T03:46:25.612Z,3.3
2022-09-10T03:47:26.225Z,3.9
2022-09-10T03:48:26.839Z,3.3
2022-09-10T03:49:27.430Z,3.9
2022-09-10T03:50:28.027Z,4.0
2022-09-10T03:51:28.618Z,3.3
2022-09-10T03:52:29.212Z,3.3
2022-09-10T03:53:29.807Z,3.5
2022-09-10T03:54:30.422Z,3.7
2022-09-10T03:55:31.020Z,3.6
2022-09-10T03:56:31.610Z,3.0
2022-09-10T03:57:32.206Z,3.2
2022-09-10T03:58:32.799Z,3.0
2022-09-10T03:59:33.392Z,3.3
2022-09-10T04:00:33.988Z,3.1
2022-09-10T04:01:34.592Z,3.3
2022-09-10T04:02:35.176Z,3.5
2022-09-10T04:03:35.774Z,3.6
2022-09-10T04:04:36.368Z,3.6
2022-09-10T04:05:36.964Z,3.8
2022-09-10T04:06:37.559Z,3.8
2022-09-10T04:07:38.151Z,3.2
2022-09-10T04:08:38.845Z,3.0
2022-09-10T04:09:39.450Z,3.1
2022-09-10T04:10:40.078Z,3.6
2022-09-10T04:11:40.693Z,3.5
2022-09-10T04:12:41.292Z,3.9
2022-09-10T04:13:41.887Z,3.6
2022-09-10T04:14:42.481Z,3.8
2022-09-10T04:15:43.076Z,3.2
2022-09-10T04:16:43.698Z,3.1
2022-09-10T04:17:44.272Z,3.2
2022-09-10T04:18:44.867Z,3.0
2022-09-10T04:19:45.466Z,3.5
2022-09-10T04:20:46.062Z,4.3
2022-09-10T04:21:46.654Z,3.2
2022-09-10T04:22:47.247Z,3.0
2022-09-10T04:23:47.843Z,3.2
2022-09-10T04:24:48.439Z,3.5
2022-09-10T04:25:49.035Z,4.3
2022-09-10T04:26:49.631Z,3.1
2022-09-10T04:27:50.231Z,3.1
2022-09-10T04:28:50.822Z,3.4
2022-09-10T04:29:51.419Z,2.8
2022-09-10T04:30:52.016Z,3.1
2022-09-10T04:31:52.701Z,3.8
2022-09-10T04:32:53.250Z,2.8
2022-09-10T04:33:53.850Z,3.2
2022-09-10T04:34:54.444Z,3.2
2022-09-10T04:35:55.041Z,3.3
2022-09-10T04:36:55.637Z,3.5
2022-09-10T04:37:56.235Z,3.8
2022-09-10T04:38:56.828Z,3.1
2022-09-10T04:39:57.453Z,3.3
2022-09-10T04:40:58.024Z,3.2
2022-09-10T04:41:58.623Z,3.4
2022-09-10T04:42:59.221Z,3.0
2022-09-10T04:43:59.824Z,3.3
2022-09-10T04:45:00.420Z,3.4
2022-09-10T04:46:01.056Z,3.2
2022-09-10T04:47:01.622Z,2.9
2022-09-10T04:48:06.706Z,3.3
2022-09-10T04:49:03.812Z,2.8
2022-09-10T04:50:04.453Z,2.6
2022-09-10T04:51:16.255Z,3.1
2022-09-10T04:52:06.477Z,3.2
2022-09-10T04:53:07.076Z,3.2
2022-09-10T04:54:07.675Z,2.9
2022-09-10T04:55:08.273Z,2.7
2022-09-10T04:56:08.874Z,2.9
2022-09-10T04:57:09.474Z,2.9
2022-09-10T04:58:10.092Z,3.0
2022-09-10T04:59:10.693Z,2.5
2022-09-10T05:00:11.310Z,2.7
2022-09-10T05:01:12.014Z,2.6
2022-09-10T05:02:12.583Z,2.7
2022-09-10T05:03:13.172Z,2.6
2022-09-10T05:04:13.789Z,2.7
2022-09-10T05:05:14.386Z,2.5
2022-09-10T05:06:14.984Z,2.4
2022-09-10T05:07:15.583Z,2.4
2022-09-10T05:08:16.181Z,2.7
2022-09-10T05:09:16.782Z,2.3
2022-09-10T05:10:17.381Z,1.8
2022-09-10T05:11:17.980Z,1.9
2022-09-10T05:12:18.580Z,2.1
2022-09-10T05:13:19.179Z,3.0
2022-09-10T05:14:19.779Z,2.3
2022-09-10T05:15:20.380Z,2.2
2022-09-10T05:16:21.038Z,2.3
2022-09-10T05:17:21.611Z,1.9
2022-09-10T05:18:22.211Z,2.0
2022-09-10T05:19:22.809Z,2.2
2022-09-10T05:20:23.409Z,1.9
2022-09-10T05:21:24.008Z,2.4
2022-09-10T05:22:25.796Z,1.9
2022-09-10T05:23:25.221Z,1.8
2022-09-10T05:24:25.820Z,1.6
2022-09-10T05:25:26.422Z,1.5
2022-09-10T05:26:27.020Z,1.9
2022-09-10T05:27:27.620Z,2.4
2022-09-10T05:28:28.218Z,1.5
2022-09-10T05:29:28.818Z,1.7
2022-09-10T05:30:29.417Z,2.5
2022-09-10T05:31:30.054Z,2.1
2022-09-10T05:32:30.614Z,2.8
2022-09-10T05:33:31.214Z,2.2
2022-09-10T05:34:31.815Z,1.4
2022-09-10T05:35:32.414Z,1.7
2022-09-10T05:36:33.012Z,2.0
2022-09-10T05:37:33.612Z,2.2
2022-09-10T05:38:38.133Z,1.9
2022-09-10T05:39:35.819Z,1.9
2022-09-10T05:40:36.405Z,2.0
2022-09-10T05:41:37.003Z,1.9
2022-09-10T05:42:37.603Z,1.8
2022-09-10T05:43:38.201Z,1.7
2022-09-10T05:44:38.803Z,2.3
2022-09-10T05:45:39.432Z,1.7
2022-09-10T05:46:40.020Z,2.4
2022-09-10T05:47:40.618Z,2.1
2022-09-10T05:48:41.848Z,2.3
2022-09-10T05:49:42.551Z,2.0
2022-09-10T05:50:43.179Z,2.2
2022-09-10T05:51:43.767Z,1.9
2022-09-10T05:52:44.388Z,2.0
2022-09-10T05:53:44.985Z,1.8
2022-09-10T05:54:45.586Z,1.9
2022-09-10T05:55:46.206Z,1.5
2022-09-10T05:56:46.786Z,1.6
2022-09-10T05:57:47.403Z,1.4
2022-09-10T05:58:48.003Z,1.8
2022-09-10T05:59:48.603Z,1.5
2022-09-10T06:00:49.202Z,1.5
2022-09-10T06:01:49.843Z,1.5
2022-09-10T06:02:50.493Z,1.3
2022-09-10T06:03:51.069Z,1.4
2022-09-10T06:04:51.670Z,1.2
2022-09-10T06:05:52.270Z,1.4
2022-09-10T06:06:52.870Z,1.4
2022-09-10T06:07:53.470Z,1.3
2022-09-10T06:08:54.088Z,1.2
2022-09-10T06:09:54.687Z,1.1
2022-09-10T06:10:55.287Z,1.5
2022-09-10T06:11:55.887Z,1.2
2022-09-10T06:12:56.487Z,1.1
2022-09-10T06:13:57.086Z,1.0
2022-09-10T06:14:57.686Z,1.2
2022-09-10T06:15:58.287Z,1.2
2022-09-10T06:16:58.906Z,1.0
2022-09-10T06:17:59.505Z,1.3
2022-09-10T06:19:00.106Z,0.9
2022-09-10T06:20:00.707Z,0.9
2022-09-10T06:21:01.309Z,1.2
2022-09-10T06:22:01.916Z,1.1
2022-09-10T06:23:02.510Z,1.0
2022-09-10T06:24:03.123Z,1.3
2022-09-10T06:25:03.732Z,1.1
2022-09-10T06:26:04.338Z,1.1
2022-09-10T06:27:04.935Z,1.1
2022-09-10T06:28:05.536Z,0.9
2022-09-10T06:29:06.145Z,1.6
2022-09-10T06:30:06.741Z,1.0
2022-09-10T06:31:07.361Z,1.0
2022-09-10T06:32:07.940Z,1.5
2022-09-10T06:33:08.543Z,1.0
2022-09-10T06:34:09.142Z,1.4
2022-09-10T06:35:09.744Z,1.4
2022-09-10T06:36:10.367Z,1.1
2022-09-10T06:37:10.985Z,1.1
2022-09-10T06:38:11.585Z,1.5
2022-09-10T06:39:12.189Z,0.8
2022-09-10T06:40:12.861Z,1.5
2022-09-10T06:41:13.408Z,1.0
2022-09-10T06:42:14.005Z,1.2
2022-09-10T06:43:14.606Z,1.0
2022-09-10T06:44:15.208Z,1.0
2022-09-10T06:45:15.809Z,1.1
2022-09-10T06:46:50.844Z,1.1
2022-09-10T06:48:38.202Z,1.1
2022-09-10T06:49:20.215Z,1.2
2022-09-10T06:50:20.816Z,1.6
2022-09-10T06:51:21.415Z,1.5
2022-09-10T06:52:22.017Z,1.1
2022-09-10T06:53:22.621Z,1.4
2022-09-10T06:54:23.222Z,1.0
2022-09-10T06:55:23.825Z,1.4
2022-09-10T06:56:24.428Z,1.4
2022-09-10T06:57:25.028Z,1.3
2022-09-10T06:58:25.628Z,1.3
2022-09-10T06:59:26.249Z,1.7
2022-09-10T07:00:26.849Z,1.5
2022-09-10T07:01:27.503Z,1.4
2022-09-10T07:02:28.106Z,1.1
2022-09-10T07:03:28.672Z,1.2
2022-09-10T07:04:29.269Z,1.2
2022-09-10T07:05:29.891Z,1.1
2022-09-10T07:06:30.492Z,0.9
2022-09-10T07:07:31.093Z,0.8
2022-09-10T07:08:31.759Z,0.9
2022-09-10T07:09:32.356Z,0.7
2022-09-10T07:10:32.955Z,0.9
2022-09-10T07:11:35.924Z,0.7
2022-09-10T07:12:35.150Z,0.8
2022-09-10T07:13:35.752Z,0.9
2022-09-10T07:14:36.362Z,1.1
2022-09-10T07:15:37.023Z,0.7
2022-09-10T07:16:37.567Z,0.8
2022-09-10T07:17:38.169Z,0.9
2022-09-10T07:18:38.979Z,1.0
2022-09-10T07:19:39.617Z,0.7
2022-09-10T07:20:40.243Z,1.1
2022-09-10T07:21:40.838Z,0.6
2022-09-10T07:22:41.441Z,0.7
2022-09-10T07:23:42.064Z,0.7
2022-09-10T07:24:42.665Z,0.7
2022-09-10T07:25:43.278Z,0.8
2022-09-10T07:26:43.870Z,0.7
2022-09-10T07:27:44.472Z,1.0
2022-09-10T07:28:45.074Z,0.9
2022-09-10T07:29:45.674Z,0.8
2022-09-10T07:30:46.345Z,0.9
2022-09-10T07:31:46.902Z,0.9
2022-09-10T07:32:47.504Z,1.1
2022-09-10T07:33:48.112Z,1.1
2022-09-10T07:34:48.713Z,0.9
2022-09-10T07:35:49.315Z,0.8
2022-09-10T07:36:49.917Z,1.1
2022-09-10T07:37:50.519Z,1.2
2022-09-10T07:38:51.120Z,1.1
2022-09-10T07:39:51.785Z,1.1
2022-09-10T07:40:52.344Z,1.2
2022-09-10T07:41:52.950Z,0.8
2022-09-10T07:42:53.547Z,0.9
2022-09-10T07:43:54.149Z,1.1
2022-09-10T07:44:54.747Z,1.3
2022-09-10T07:45:55.388Z,1.6
2022-09-10T07:46:55.949Z,1.0
2022-09-10T07:47:56.572Z,1.3
2022-09-10T07:48:57.174Z,1.6
2022-09-10T07:49:57.775Z,1.3
2022-09-10T07:50:58.376Z,1.4
2022-09-10T07:52:00.110Z,1.4
2022-09-10T07:53:00.572Z,1.1
2022-09-10T07:54:01.175Z,1.3
2022-09-10T07:55:01.796Z,1.3
2022-09-10T07:56:02.397Z,1.4
2022-09-10T07:57:02.997Z,1.4
2022-09-10T07:58:03.598Z,1.7
2022-09-10T07:59:04.198Z,1.4
2022-09-10T08:00:04.833Z,1.4
2022-09-10T08:01:05.476Z,1.3
2022-09-10T08:02:06.060Z,1.3
2022-09-10T08:03:06.628Z,1.5
2022-09-10T08:04:07.230Z,1.3
2022-09-10T08:05:07.832Z,1.3
2022-09-10T08:06:08.453Z,1.1
2022-09-10T08:07:09.054Z,0.9
2022-09-10T08:08:09.659Z,1.1
2022-09-10T08:09:10.259Z,1.2
2022-09-10T08:10:10.861Z,1.1
2022-09-10T08:11:12.143Z,1.3
2022-09-10T08:12:12.794Z,1.3
2022-09-10T08:13:13.396Z,1.6
2022-09-10T08:14:13.998Z,1.3
2022-09-10T08:15:14.599Z,1.8
2022-09-10T08:16:15.247Z,1.4
2022-09-10T08:17:15.815Z,1.4
2022-09-10T08:18:16.419Z,1.4
2022-09-10T08:19:17.022Z,2.1
2022-09-10T08:20:17.629Z,1.5
2022-09-10T08:21:18.225Z,1.4
2022-09-10T08:22:18.826Z,1.6
2022-09-10T08:23:19.427Z,1.5
2022-09-10T08:24:20.029Z,1.5
2022-09-10T08:25:20.633Z,1.4
2022-09-10T08:26:21.235Z,1.4
2022-09-10T08:27:21.837Z,1.8
2022-09-10T08:28:25.341Z,1.4
2022-09-10T08:29:24.034Z,1.3
2022-09-10T08:30:24.638Z,1.3
2022-09-10T08:31:25.262Z,1.5
2022-09-10T08:32:25.842Z,1.2
2022-09-10T08:33:26.444Z,1.2
2022-09-10T08:34:27.050Z,1.2
2022-09-10T08:35:27.668Z,1.2
2022-09-10T08:36:28.274Z,1.3
2022-09-10T08:37:28.879Z,1.1
2022-09-10T08:38:29.481Z,1.3
2022-09-10T08:39:30.084Z,1.5
2022-09-10T08:40:30.687Z,1.1
2022-09-10T08:41:31.308Z,1.3
2022-09-10T08:42:31.909Z,1.1
2022-09-10T08:43:32.533Z,1.1
2022-09-10T08:44:33.134Z,1.2
2022-09-10T08:45:33.788Z,1.1
2022-09-10T08:46:34.349Z,1.4
2022-09-10T08:47:34.951Z,0.9
2022-09-10T08:48:35.619Z,1.2
2022-09-10T08:49:36.201Z,1.7
2022-09-10T08:50:36.802Z,1.0
2022-09-10T08:51:37.404Z,1.1
2022-09-10T08:52:38.007Z,1.2
2022-09-10T08:53:38.608Z,1.3
2022-09-10T08:54:39.212Z,1.5
2022-09-10T08:55:39.811Z,1.4
2022-09-10T08:56:40.412Z,1.3
2022-09-10T08:57:41.012Z,1.2
2022-09-10T08:58:41.612Z,1.4
2022-09-10T08:59:42.212Z,1.4
2022-09-10T09:00:42.817Z,1.8
2022-09-10T09:01:43.464Z,1.4
2022-09-10T09:02:50.288Z,1.5
2022-09-10T09:03:45.615Z,1.6
2022-09-10T09:04:46.207Z,1.6
2022-09-10T09:05:46.812Z,1.8
2022-09-10T09:06:47.413Z,1.7
2022-09-10T09:07:48.017Z,1.7
2022-09-10T09:08:48.730Z,2.0
2022-09-10T09:09:49.290Z,2.2
2022-09-10T09:10:49.890Z,2.3
2022-09-10T09:11:50.495Z,2.2
2022-09-10T09:12:51.097Z,2.4
2022-09-10T09:13:51.701Z,2.3
2022-09-10T09:14:52.300Z,2.1
2022-09-10T09:15:53.017Z,2.3
2022-09-10T09:16:53.572Z,2.0
2022-09-10T09:17:54.176Z,2.1
2022-09-10T09:18:54.776Z,2.4
2022-09-10T09:19:55.381Z,2.2
2022-09-10T09:20:55.981Z,2.3
2022-09-10T09:21:56.585Z,2.7
2022-09-10T09:22:57.185Z,2.7
2022-09-10T09:24:12.828Z,2.2
2022-09-10T09:24:59.404Z,2.7
2022-09-10T09:26:00.005Z,2.6
2022-09-10T09:27:00.605Z,2.6
2022-09-10T09:28:01.210Z,2.9
2022-09-10T09:29:01.828Z,2.7
2022-09-10T09:30:02.431Z,2.8
2022-09-10T09:31:06.376Z,3.0
2022-09-10T09:32:04.629Z,2.6
2022-09-10T09:33:05.229Z,2.9
2022-09-10T09:34:05.835Z,2.9
2022-09-10T09:35:06.435Z,3.5
2022-09-10T09:36:07.044Z,3.5
2022-09-10T09:37:07.641Z,2.7
2022-09-10T09:38:08.244Z,2.6
2022-09-10T09:39:08.867Z,3.0
2022-09-10T09:40:09.513Z,2.5
2022-09-10T09:41:10.070Z,3.0
2022-09-10T09:42:10.673Z,3.1
2022-09-10T09:43:11.278Z,3.0
2022-09-10T09:44:11.882Z,2.9
2022-09-10T09:45:12.483Z,2.7
2022-09-10T09:46:13.100Z,2.6
2022-09-10T09:47:13.689Z,2.5
2022-09-10T09:48:14.289Z,2.6
2022-09-10T09:49:14.891Z,2.9
2022-09-10T09:50:15.493Z,2.8
2022-09-10T09:51:16.096Z,2.7
2022-09-10T09:52:16.718Z,2.6
2022-09-10T09:53:17.320Z,2.9
2022-09-10T09:54:56.916Z,3.0
2022-09-10T09:55:19.520Z,2.8
2022-09-10T09:56:20.124Z,2.8
2022-09-10T09:57:20.771Z,3.4
2022-09-10T09:58:21.330Z,2.8
2022-09-10T09:59:21.930Z,2.7
2022-09-10T10:00:22.533Z,3.5
2022-09-10T10:01:23.206Z,3.0
2022-09-10T10:02:23.856Z,3.1
2022-09-10T10:03:24.442Z,3.0
2022-09-10T10:04:25.043Z,3.3
2022-09-10T10:05:25.645Z,3.6
2022-09-10T10:06:26.249Z,2.7
2022-09-10T10:07:26.850Z,2.9
2022-09-10T10:08:27.455Z,2.9
2022-09-10T10:09:28.056Z,2.7
2022-09-10T10:10:28.665Z,3.0
2022-09-10T10:11:29.261Z,3.3
2022-09-10T10:12:29.864Z,3.0
2022-09-10T10:13:30.467Z,3.1
2022-09-10T10:14:31.074Z,2.5
2022-09-10T10:15:31.698Z,2.9
2022-09-10T10:16:32.295Z,2.6
2022-09-10T10:17:32.896Z,2.7
2022-09-10T10:18:33.499Z,3.3
2022-09-10T10:19:34.103Z,3.1
2022-09-10T10:20:34.724Z,2.7
2022-09-10T10:21:35.324Z,3.1
2022-09-10T10:22:35.946Z,2.6
2022-09-10T10:23:36.548Z,3.0
2022-09-10T10:24:37.146Z,2.7
2022-09-10T10:25:37.747Z,3.0
2022-09-10T10:26:38.353Z,2.3
2022-09-10T10:27:38.952Z,2.8
2022-09-10T10:28:39.635Z,2.8
2022-09-10T10:29:40.217Z,3.5
2022-09-10T10:30:40.822Z,3.1
2022-09-10T10:31:41.436Z,2.6
2022-09-10T10:32:42.029Z,2.8
2022-09-10T10:33:42.628Z,2.7
2022-09-10T10:34:43.231Z,2.6
2022-09-10T10:35:43.832Z,2.4
2022-09-10T10:36:44.440Z,2.7
2022-09-10T10:37:45.060Z,2.6
2022-09-10T10:38:45.683Z,2.8
2022-09-10T10:39:46.332Z,2.9
2022-09-10T10:40:46.889Z,2.6
2022-09-10T10:41:47.491Z,3.2
2022-09-10T10:42:48.095Z,3.0
2022-09-10T10:43:48.699Z,3.0
2022-09-10T10:44:49.301Z,3.2
2022-09-10T10:45:49.900Z,2.7
2022-09-10T10:46:50.506Z,2.4
2022-09-10T10:47:51.107Z,3.2
2022-09-10T10:48:51.710Z,2.8
2022-09-10T10:49:52.312Z,2.7
2022-09-10T10:50:53.210Z,2.9
2022-09-10T10:51:53.777Z,3.1
2022-09-10T10:52:54.381Z,2.7
2022-09-10T10:53:54.987Z,3.1
2022-09-10T10:54:55.609Z,2.9
2022-09-10T10:55:56.212Z,2.7
2022-09-10T10:56:56.815Z,2.7
2022-09-10T10:57:57.417Z,2.6
2022-09-10T10:58:58.019Z,2.7
2022-09-10T10:59:58.622Z,2.7
2022-09-10T11:00:59.246Z,2.6
2022-09-10T11:01:59.890Z,2.1
2022-09-10T11:03:00.493Z,2.3
2022-09-10T11:04:01.097Z,2.4
2022-09-10T11:05:01.700Z,2.2
2022-09-10T11:06:02.302Z,2.3
2022-09-10T11:07:02.906Z,2.1
2022-09-10T11:08:03.529Z,2.3
2022-09-10T11:09:04.133Z,2.3
2022-09-10T11:10:04.736Z,2.4
2022-09-10T11:11:05.340Z,2.3
2022-09-10T11:12:05.942Z,2.1
2022-09-10T11:13:06.548Z,2.5
2022-09-10T11:14:07.147Z,1.9
2022-09-10T11:15:07.748Z,2.3
2022-09-10T11:16:08.391Z,2.6
2022-09-10T11:17:08.957Z,2.5
2022-09-10T11:18:09.562Z,2.2
2022-09-10T11:19:10.164Z,2.3
2022-09-10T11:20:27.886Z,2.4
2022-09-10T11:21:12.277Z,2.4
2022-09-10T11:22:12.875Z,2.1
2022-09-10T11:23:13.480Z,2.3
2022-09-10T11:24:17.089Z,2.2
2022-09-10T11:25:15.677Z,2.2
2022-09-10T11:26:16.281Z,2.1
2022-09-10T11:27:16.885Z,2.1
2022-09-10T11:28:17.485Z,2.5
2022-09-10T11:29:18.089Z,2.3
2022-09-10T11:30:18.689Z,2.0
2022-09-10T11:31:19.340Z,2.2
2022-09-10T11:32:19.896Z,2.6
2022-09-10T11:33:20.502Z,2.6
2022-09-10T11:34:21.104Z,1.8
2022-09-10T11:35:21.709Z,2.0
2022-09-10T11:36:22.310Z,2.1
2022-09-10T11:37:22.913Z,1.8
2022-09-10T11:38:23.517Z,2.1
2022-09-10T11:39:24.121Z,2.4
2022-09-10T11:40:24.724Z,2.5
2022-09-10T11:41:25.327Z,2.2
2022-09-10T11:42:25.930Z,2.1
2022-09-10T11:43:26.533Z,1.8
2022-09-10T11:44:27.160Z,2.1
2022-09-10T11:45:27.738Z,2.1
2022-09-10T11:46:28.404Z,2.0
2022-09-10T11:47:28.950Z,1.6
2022-09-10T11:48:29.553Z,1.9
2022-09-10T11:49:30.153Z,2.1
2022-09-10T11:50:34.578Z,2.0
2022-09-10T11:51:32.371Z,1.8
2022-09-10T11:52:32.971Z,1.6
2022-09-10T11:53:33.576Z,1.9
2022-09-10T11:54:34.177Z,1.9
2022-09-10T11:55:34.801Z,1.6
2022-09-10T11:56:35.407Z,1.9
2022-09-10T11:57:36.022Z,1.7
2022-09-10T11:58:36.623Z,1.8
2022-09-10T11:59:37.228Z,1.3
2022-09-10T12:00:37.851Z,1.7
2022-09-10T12:01:38.456Z,1.4
2022-09-10T12:02:39.060Z,1.7
2022-09-10T12:03:39.895Z,1.9
2022-09-10T12:04:42.781Z,1.5
2022-09-10T12:05:42.154Z,1.8
2022-09-10T12:06:42.757Z,1.5
2022-09-10T12:07:43.359Z,1.7
2022-09-10T12:08:43.963Z,1.5
2022-09-10T12:09:44.569Z,1.3
2022-09-10T12:10:45.171Z,1.2
2022-09-10T12:11:45.776Z,1.5
2022-09-10T12:12:46.379Z,1.3
2022-09-10T12:13:46.984Z,1.2
2022-09-10T12:14:47.587Z,1.2
2022-09-10T12:15:48.241Z,1.6
2022-09-10T12:16:48.793Z,1.4
2022-09-10T12:17:49.396Z,1.3
2022-09-10T12:18:49.999Z,1.1
2022-09-10T12:19:50.652Z,1.6
2022-09-10T12:20:51.225Z,1.6
2022-09-10T12:21:51.833Z,1.4
2022-09-10T12:22:52.432Z,1.1
2022-09-10T12:23:53.035Z,1.5
2022-09-10T12:24:53.637Z,1.7
2022-09-10T12:25:54.238Z,1.7
2022-09-10T12:26:54.841Z,1.4
2022-09-10T12:27:55.442Z,1.2
2022-09-10T12:28:56.325Z,1.3
2022-09-10T12:29:56.883Z,1.6
2022-09-10T12:30:57.512Z,1.1
2022-09-10T12:31:58.094Z,1.9
2022-09-10T12:32:58.695Z,1.6
2022-09-10T12:33:59.298Z,1.6
2022-09-10T12:34:59.902Z,1.3
2022-09-10T12:36:00.506Z,1.4
2022-09-10T12:37:01.113Z,1.4
2022-09-10T12:38:01.713Z,1.7
2022-09-10T12:39:02.316Z,1.5
2022-09-10T12:40:03.002Z,1.7
2022-09-10T12:41:03.600Z,1.2
2022-09-10T12:42:04.208Z,1.2
2022-09-10T12:43:04.803Z,1.2
2022-09-10T12:44:05.408Z,1.2
2022-09-10T12:45:06.016Z,1.1
2022-09-10T12:46:06.652Z,1.3
2022-09-10T12:47:07.238Z,1.4
2022-09-10T12:48:07.838Z,1.4
2022-09-10T12:49:08.465Z,1.1
2022-09-10T12:50:09.043Z,1.5
2022-09-10T12:51:09.648Z,1.2
2022-09-10T12:52:10.245Z,1.4
2022-09-10T12:53:10.849Z,1.4
2022-09-10T12:54:11.448Z,1.1
2022-09-10T12:55:12.049Z,1.4
2022-09-10T12:56:15.513Z,1.4
2022-09-10T12:57:14.244Z,1.1
2022-09-10T12:58:14.845Z,1.5
2022-09-10T12:59:15.448Z,1.4
2022-09-10T13:00:16.049Z,1.0
2022-09-10T13:01:16.740Z,1.4
2022-09-10T13:02:17.463Z,1.4
2022-09-10T13:03:18.067Z,1.6
2022-09-10T13:04:18.667Z,1.6
2022-09-10T13:05:19.268Z,1.5
2022-09-10T13:06:19.870Z,1.3
2022-09-10T13:07:20.468Z,1.3
2022-09-10T13:08:21.071Z,1.5
2022-09-10T13:09:21.688Z,1.9
2022-09-10T13:10:22.397Z,1.4
2022-09-10T13:11:22.953Z,1.4
2022-09-10T13:12:23.554Z,1.3
2022-09-10T13:13:24.156Z,1.7
2022-09-10T13:14:24.756Z,1.4
2022-09-10T13:15:25.357Z,1.5
2022-09-10T13:16:25.960Z,1.3
2022-09-10T13:17:26.563Z,1.5
2022-09-10T13:18:27.164Z,1.2
2022-09-10T13:19:27.767Z,1.2
2022-09-10T13:20:28.369Z,1.4
2022-09-10T13:21:28.971Z,1.8
2022-09-10T13:22:29.573Z,1.8
2022-09-10T13:23:30.176Z,1.4
2022-09-10T13:24:32.327Z,1.3
2022-09-10T13:25:32.371Z,1.7
2022-09-10T13:26:32.972Z,1.6
2022-09-10T13:27:33.573Z,1.5
2022-09-10T13:28:34.175Z,1.5
2022-09-10T13:29:34.778Z,1.5
2022-09-10T13:30:35.399Z,1.0
2022-09-10T13:31:35.999Z,1.1
2022-09-10T13:32:36.600Z,1.5
2022-09-10T13:33:37.201Z,1.3
2022-09-10T13:34:37.802Z,1.2
2022-09-10T13:35:38.404Z,1.2
2022-09-10T13:36:39.005Z,1.3
2022-09-10T13:37:39.611Z,1.1
2022-09-10T13:38:40.226Z,1.1
2022-09-10T13:39:40.867Z,1.0
2022-09-10T13:40:41.428Z,1.1
2022-09-10T13:41:42.033Z,0.9
2022-09-10T13:42:42.634Z,0.8
2022-09-10T13:43:43.238Z,1.0
2022-09-10T13:44:43.840Z,1.0
2022-09-10T13:45:44.446Z,1.1
2022-09-10T13:46:45.044Z,0.9
2022-09-10T13:47:45.647Z,0.9
2022-09-10T13:48:46.247Z,1.2
2022-09-10T13:49:46.857Z,1.2
2022-09-10T13:50:47.450Z,1.2
2022-09-10T13:51:48.056Z,1.0
2022-09-10T13:52:48.672Z,1.0
2022-09-10T13:53:49.276Z,1.0
2022-09-10T13:54:49.872Z,1.1